createdAt,value
2017-03-28T00:00:31.119Z,20.64
2017-03-28T00:01:41.357Z,20.62
2017-03-28T00:02:50.984Z,20.61
2017-03-28T00:04:00.610Z,20.57
2017-03-28T00:05:10.546Z,20.62
2017-03-28T00:06:20.481Z,20.62
2017-03-28T00:07:30.420Z,20.61
2017-03-28T00:08:40.663Z,20.59
2017-03-28T00:09:50.904Z,20.57
2017-03-28T00:11:00.524Z,20.57
2017-03-28T00:12:10.457Z,20.58
2017-03-28T00:13:20.391Z,20.59
2017-03-28T00:14:29.697Z,20.59
2017-03-28T00:15:39.618Z,20.51
2017-03-28T00:16:49.859Z,20.59
2017-03-28T00:18:00.106Z,20.62
2017-03-28T00:19:10.034Z,20.62
2017-03-28T00:20:19.968Z,20.61
2017-03-28T00:21:30.211Z,20.61
2017-03-28T00:22:40.149Z,20.64
2017-03-28T00:23:50.396Z,20.58
2017-03-28T00:25:00.655Z,20.59
2017-03-28T00:26:10.583Z,20.58
2017-03-28T00:27:20.514Z,20.59
2017-03-28T00:28:30.438Z,20.57
2017-03-28T00:29:40.058Z,20.59
2017-03-28T00:30:50.299Z,20.58
2017-03-28T00:32:00.540Z,20.61
2017-03-28T00:33:10.789Z,20.59
2017-03-28T00:34:21.036Z,20.62
2017-03-28T00:35:31.285Z,20.61
2017-03-28T00:36:41.217Z,20.61
2017-03-28T00:37:51.455Z,20.61
2017-03-28T00:39:01.713Z,20.64
2017-03-28T00:40:11.960Z,20.64
2017-03-28T00:41:22.204Z,20.59
2017-03-28T00:42:32.449Z,20.66
2017-03-28T00:43:42.695Z,20.57
2017-03-28T00:44:52.318Z,20.61
2017-03-28T00:46:02.568Z,20.61
2017-03-28T00:47:12.808Z,20.57
2017-03-28T00:48:23.059Z,20.61
2017-03-28T00:49:32.677Z,20.66
2017-03-28T00:50:42.607Z,20.61
2017-03-28T00:51:52.851Z,20.7
2017-03-28T00:53:03.091Z,20.64
2017-03-28T00:54:13.024Z,20.62
2017-03-28T00:55:22.949Z,20.67
2017-03-28T00:56:32.561Z,20.58
2017-03-28T00:57:42.797Z,20.57
2017-03-28T00:58:52.726Z,20.61
2017-03-28T01:00:02.977Z,20.54
2017-03-28T01:01:12.902Z,20.62
2017-03-28T01:02:23.138Z,20.66
2017-03-28T01:03:32.753Z,20.58
2017-03-28T01:04:43.007Z,20.62
2017-03-28T01:05:52.936Z,20.61
2017-03-28T01:07:02.858Z,20.61
2017-03-28T01:08:13.099Z,20.61
2017-03-28T01:09:23.032Z,20.64
2017-03-28T01:10:32.657Z,20.61
2017-03-28T01:11:42.911Z,20.58
2017-03-28T01:12:53.152Z,20.59
2017-03-28T01:14:03.083Z,20.61
2017-03-28T01:15:13.340Z,20.64
2017-03-28T01:16:23.584Z,20.59
2017-03-28T01:17:33.826Z,20.58
2017-03-28T01:18:44.068Z,20.57
2017-03-28T01:19:53.693Z,20.61
2017-03-28T01:21:03.633Z,20.55
2017-03-28T01:22:13.256Z,20.66
2017-03-28T01:23:23.188Z,20.59
2017-03-28T01:24:32.498Z,20.61
2017-03-28T01:25:42.128Z,20.59
2017-03-28T01:26:52.373Z,20.64
2017-03-28T01:28:02.622Z,20.61
2017-03-28T01:29:12.550Z,20.54
2017-03-28T01:30:22.482Z,20.61
2017-03-28T01:31:32.418Z,20.67
2017-03-28T01:32:42.361Z,20.64
2017-03-28T01:33:52.614Z,20.59
2017-03-28T01:35:02.236Z,20.59
2017-03-28T01:36:12.159Z,20.62
2017-03-28T01:37:22.408Z,20.62
2017-03-28T01:38:32.338Z,20.61
2017-03-28T01:39:42.585Z,20.61
2017-03-28T01:40:52.201Z,20.59
2017-03-28T01:42:02.136Z,20.58
2017-03-28T01:43:12.065Z,20.66
2017-03-28T01:44:22.316Z,20.61
2017-03-28T01:45:32.256Z,20.64
2017-03-28T01:46:42.506Z,20.57
2017-03-28T01:47:52.444Z,20.64
2017-03-28T01:49:01.754Z,20.64
2017-03-28T01:50:11.364Z,20.69
2017-03-28T01:51:21.608Z,20.58
2017-03-28T01:52:31.537Z,20.64
2017-03-28T01:53:41.463Z,20.61
2017-03-28T01:54:51.703Z,20.58
2017-03-28T01:56:01.953Z,20.67
2017-03-28T01:57:12.193Z,20.61
2017-03-28T01:58:22.123Z,20.59
2017-03-28T01:59:32.361Z,20.58
2017-03-28T02:00:41.982Z,20.67
2017-03-28T02:01:52.228Z,20.58
2017-03-28T02:03:02.470Z,20.57
2017-03-28T02:04:12.730Z,20.54
2017-03-28T02:05:22.973Z,20.66
2017-03-28T02:06:33.214Z,20.62
2017-03-28T02:07:43.463Z,20.61
2017-03-28T02:08:53.714Z,20.58
2017-03-28T02:10:03.372Z,20.69
2017-03-28T02:11:13.615Z,20.64
2017-03-28T02:12:23.860Z,20.62
2017-03-28T02:13:33.476Z,20.61
2017-03-28T02:14:43.410Z,20.62
2017-03-28T02:15:53.345Z,20.66
2017-03-28T02:17:03.280Z,20.57
2017-03-28T02:18:13.221Z,20.62
2017-03-28T02:19:23.473Z,20.54
2017-03-28T02:20:33.404Z,20.59
2017-03-28T02:21:43.341Z,20.64
2017-03-28T02:22:53.586Z,20.61
2017-03-28T02:24:03.521Z,20.66
2017-03-28T02:25:13.458Z,20.59
2017-03-28T02:26:22.759Z,20.62
2017-03-28T02:27:33.009Z,20.62
2017-03-28T02:28:43.257Z,20.62
2017-03-28T02:29:53.202Z,20.59
2017-03-28T02:31:03.458Z,20.64
2017-03-28T02:32:13.707Z,20.66
2017-03-28T02:33:23.961Z,20.61
2017-03-28T02:34:34.208Z,20.59
2017-03-28T02:35:43.821Z,20.61
2017-03-28T02:36:54.064Z,20.64
2017-03-28T02:38:03.991Z,20.64
2017-03-28T02:39:14.238Z,20.64
2017-03-28T02:40:23.850Z,20.61
2017-03-28T02:41:33.778Z,20.61
2017-03-28T02:42:43.396Z,20.62
2017-03-28T02:43:53.352Z,20.66
2017-03-28T02:45:03.597Z,20.61
2017-03-28T02:46:13.864Z,20.59
2017-03-28T02:47:24.113Z,20.62
2017-03-28T02:48:34.055Z,20.66
2017-03-28T02:49:44.023Z,20.58
2017-03-28T02:50:53.952Z,20.64
2017-03-28T02:52:03.876Z,20.59
2017-03-28T02:53:14.129Z,20.61
2017-03-28T02:54:24.057Z,20.69
2017-03-28T02:55:33.987Z,20.58
2017-03-28T02:56:44.225Z,20.64
2017-03-28T02:57:54.468Z,20.58
2017-03-28T02:59:04.414Z,20.57
2017-03-28T03:00:14.666Z,20.66
2017-03-28T03:01:24.288Z,20.58
2017-03-28T03:02:34.539Z,20.59
2017-03-28T03:03:44.790Z,20.66
2017-03-28T03:04:55.042Z,20.59
2017-03-28T03:06:04.670Z,20.69
2017-03-28T03:07:14.288Z,20.64
2017-03-28T03:08:24.534Z,20.62
2017-03-28T03:09:34.784Z,20.58
2017-03-28T03:10:45.029Z,20.64
2017-03-28T03:11:55.268Z,20.58
2017-03-28T03:13:05.200Z,20.62
2017-03-28T03:14:15.453Z,20.62
2017-03-28T03:15:25.396Z,20.59
2017-03-28T03:16:35.653Z,20.64
2017-03-28T03:17:45.914Z,20.59
2017-03-28T03:18:56.160Z,20.64
2017-03-28T03:20:06.095Z,20.62
2017-03-28T03:21:16.330Z,20.58
2017-03-28T03:22:26.570Z,20.61
2017-03-28T03:23:36.186Z,20.61
2017-03-28T03:24:46.430Z,20.58
2017-03-28T03:25:56.363Z,20.64
2017-03-28T03:27:06.301Z,20.57
2017-03-28T03:28:16.548Z,20.62
2017-03-28T03:29:26.481Z,20.59
2017-03-28T03:30:36.416Z,20.66
2017-03-28T03:31:46.656Z,20.62
2017-03-28T03:32:56.895Z,20.62
2017-03-28T03:34:06.516Z,20.66
2017-03-28T03:35:16.759Z,20.58
2017-03-28T03:36:26.682Z,20.67
2017-03-28T03:37:36.929Z,20.67
2017-03-28T03:38:47.181Z,20.58
2017-03-28T03:39:57.118Z,20.57
2017-03-28T03:41:07.046Z,20.66
2017-03-28T03:42:16.973Z,20.57
2017-03-28T03:43:26.904Z,20.66
2017-03-28T03:44:37.147Z,20.61
2017-03-28T03:45:47.079Z,20.59
2017-03-28T03:46:57.012Z,20.58
2017-03-28T03:48:06.956Z,20.62
2017-03-28T03:49:17.205Z,20.62
2017-03-28T03:50:27.452Z,20.64
2017-03-28T03:51:37.693Z,20.61
2017-03-28T03:52:47.625Z,20.59
2017-03-28T03:53:57.873Z,20.64
2017-03-28T03:55:07.800Z,20.62
2017-03-28T03:56:17.733Z,20.54
2017-03-28T03:57:27.352Z,20.61
2017-03-28T03:58:37.599Z,20.64
2017-03-28T03:59:47.533Z,20.61
2017-03-28T04:00:57.779Z,20.62
2017-03-28T04:02:07.708Z,20.62
2017-03-28T04:03:17.029Z,20.62
2017-03-28T04:04:26.994Z,20.57
2017-03-28T04:05:36.920Z,20.64
2017-03-28T04:06:47.164Z,20.59
2017-03-28T04:07:57.419Z,20.58
2017-03-28T04:09:07.669Z,20.61
2017-03-28T04:10:17.607Z,20.57
2017-03-28T04:11:27.849Z,20.59
2017-03-28T04:12:37.796Z,20.64
2017-03-28T04:13:48.065Z,20.61
2017-03-28T04:14:58.008Z,20.67
2017-03-28T04:16:07.948Z,20.54
2017-03-28T04:17:18.189Z,20.61
2017-03-28T04:18:28.127Z,20.64
2017-03-28T04:19:38.369Z,20.62
2017-03-28T04:20:48.297Z,20.61
2017-03-28T04:21:57.908Z,20.59
2017-03-28T04:23:07.838Z,20.61
2017-03-28T04:24:17.775Z,20.64
2017-03-28T04:25:27.701Z,20.64
2017-03-28T04:26:37.635Z,20.66
2017-03-28T04:27:47.573Z,20.67
2017-03-28T04:28:57.823Z,20.59
2017-03-28T04:30:07.750Z,20.62
2017-03-28T04:31:18.001Z,20.62
2017-03-28T04:32:28.244Z,20.62
2017-03-28T04:33:38.211Z,20.61
2017-03-28T04:34:48.450Z,20.61
2017-03-28T04:35:58.700Z,20.61
2017-03-28T04:37:08.979Z,20.54
2017-03-28T04:38:19.239Z,20.59
2017-03-28T04:39:28.553Z,20.66
2017-03-28T04:40:38.481Z,20.61
2017-03-28T04:41:48.121Z,20.61
2017-03-28T04:42:57.744Z,20.59
2017-03-28T04:44:07.693Z,20.57
2017-03-28T04:45:16.994Z,20.58
2017-03-28T04:46:26.930Z,20.58
2017-03-28T04:47:36.867Z,20.64
2017-03-28T04:48:47.132Z,20.59
2017-03-28T04:49:56.752Z,20.61
2017-03-28T04:51:06.695Z,20.64
2017-03-28T04:52:16.936Z,20.69
2017-03-28T04:53:26.878Z,20.62
2017-03-28T04:54:36.829Z,20.62
2017-03-28T04:55:46.763Z,20.58
2017-03-28T04:56:57.005Z,20.64
2017-03-28T04:58:07.248Z,20.61
2017-03-28T04:59:17.174Z,20.64
2017-03-28T05:00:27.418Z,20.64
2017-03-28T05:01:37.343Z,20.62
2017-03-28T05:02:47.585Z,20.61
2017-03-28T05:03:57.830Z,20.59
2017-03-28T05:05:07.453Z,20.57
2017-03-28T05:06:17.382Z,20.67
2017-03-28T05:07:27.312Z,20.66
2017-03-28T05:08:36.937Z,20.64
2017-03-28T05:09:47.190Z,20.62
2017-03-28T05:10:57.436Z,20.54
2017-03-28T05:12:07.675Z,20.59
2017-03-28T05:13:17.290Z,20.59
2017-03-28T05:14:27.224Z,20.59
2017-03-28T05:15:37.466Z,20.64
2017-03-28T05:16:47.394Z,20.61
2017-03-28T05:17:57.645Z,20.66
2017-03-28T05:19:07.584Z,20.58
2017-03-28T05:20:17.826Z,20.69
2017-03-28T05:21:27.753Z,20.62
2017-03-28T05:22:37.687Z,20.61
2017-03-28T05:23:47.937Z,20.61
2017-03-28T05:24:57.872Z,20.64
2017-03-28T05:26:07.802Z,20.66
2017-03-28T05:27:17.758Z,20.66
2017-03-28T05:28:28.012Z,20.64
2017-03-28T05:29:38.253Z,20.62
2017-03-28T05:30:48.493Z,20.59
2017-03-28T05:31:58.429Z,20.62
2017-03-28T05:33:08.049Z,20.61
2017-03-28T05:34:17.977Z,20.67
2017-03-28T05:35:28.241Z,20.54
2017-03-28T05:36:38.487Z,20.61
2017-03-28T05:37:48.730Z,20.62
2017-03-28T05:38:58.666Z,20.59
2017-03-28T05:40:08.592Z,20.64
2017-03-28T05:41:18.832Z,20.61
2017-03-28T05:42:28.764Z,20.66
2017-03-28T05:43:38.715Z,20.66
2017-03-28T05:44:48.649Z,20.67
2017-03-28T05:45:58.892Z,20.64
2017-03-28T05:47:09.130Z,20.62
2017-03-28T05:48:19.063Z,20.62
2017-03-28T05:49:29.010Z,20.66
2017-03-28T05:50:39.244Z,20.61
2017-03-28T05:51:49.489Z,20.61
2017-03-28T05:52:58.476Z,20.64
2017-03-28T05:54:08.414Z,20.58
2017-03-28T05:55:18.346Z,20.69
2017-03-28T05:56:28.284Z,20.61
2017-03-28T05:57:38.219Z,20.58
2017-03-28T05:58:48.472Z,20.64
2017-03-28T05:59:58.716Z,20.57
2017-03-28T06:01:08.343Z,20.64
2017-03-28T06:02:18.272Z,20.62
2017-03-28T06:03:28.523Z,20.59
2017-03-28T06:04:38.770Z,20.62
2017-03-28T06:05:49.011Z,20.58
2017-03-28T06:06:59.257Z,20.66
2017-03-28T06:08:08.873Z,20.59
2017-03-28T06:09:19.126Z,20.62
2017-03-28T06:10:29.070Z,20.58
2017-03-28T06:11:38.994Z,20.66
2017-03-28T06:12:48.617Z,20.62
2017-03-28T06:13:58.560Z,20.62
2017-03-28T06:15:08.181Z,20.61
2017-03-28T06:16:18.110Z,20.62
2017-03-28T06:17:28.356Z,20.59
2017-03-28T06:18:38.610Z,20.66
2017-03-28T06:19:48.543Z,20.66
2017-03-28T06:20:58.789Z,20.62
2017-03-28T06:22:09.029Z,20.61
2017-03-28T06:23:19.283Z,20.54
2017-03-28T06:24:29.527Z,20.64
2017-03-28T06:25:39.770Z,20.67
2017-03-28T06:26:50.017Z,20.66
2017-03-28T06:28:00.265Z,20.58
2017-03-28T06:29:09.894Z,20.61
2017-03-28T06:30:19.520Z,20.61
2017-03-28T06:31:29.801Z,20.62
2017-03-28T06:32:39.728Z,20.58
2017-03-28T06:33:49.970Z,20.64
2017-03-28T06:35:00.217Z,20.58
2017-03-28T06:36:10.140Z,20.62
2017-03-28T06:37:19.771Z,20.62
2017-03-28T06:38:29.084Z,20.58
2017-03-28T06:39:39.018Z,20.58
2017-03-28T06:40:48.949Z,20.64
2017-03-28T06:41:59.194Z,20.62
2017-03-28T06:43:09.435Z,20.61
2017-03-28T06:44:19.682Z,20.62
2017-03-28T06:45:29.924Z,20.62
2017-03-28T06:46:39.851Z,20.58
2017-03-28T06:47:49.789Z,20.62
2017-03-28T06:49:00.043Z,20.62
2017-03-28T06:50:09.984Z,20.69
2017-03-28T06:51:20.236Z,20.66
2017-03-28T06:52:29.533Z,20.59
2017-03-28T06:53:39.773Z,20.58
2017-03-28T06:54:50.013Z,20.62
2017-03-28T06:55:59.946Z,20.58
2017-03-28T06:57:10.186Z,20.66
2017-03-28T06:58:20.427Z,20.64
2017-03-28T06:59:30.673Z,20.61
2017-03-28T07:00:40.919Z,20.66
2017-03-28T07:01:50.850Z,20.59
2017-03-28T07:03:00.464Z,20.61
2017-03-28T07:04:09.782Z,20.62
2017-03-28T07:05:20.027Z,20.61
2017-03-28T07:06:29.953Z,20.57
2017-03-28T07:07:40.199Z,20.7
2017-03-28T07:08:50.448Z,20.61
2017-03-28T07:10:00.692Z,20.57
2017-03-28T07:11:10.621Z,20.59
2017-03-28T07:12:20.547Z,20.66
2017-03-28T07:13:30.791Z,20.66
2017-03-28T07:14:40.743Z,20.62
2017-03-28T07:15:50.675Z,20.57
2017-03-28T07:17:00.296Z,20.62
2017-03-28T07:18:10.232Z,20.59
2017-03-28T07:19:19.539Z,20.57
2017-03-28T07:20:29.469Z,20.57
2017-03-28T07:21:39.395Z,20.59
2017-03-28T07:22:49.636Z,20.57
2017-03-28T07:23:59.578Z,20.67
2017-03-28T07:25:09.197Z,20.59
2017-03-28T07:26:18.819Z,20.57
2017-03-28T07:27:28.747Z,20.61
2017-03-28T07:28:38.677Z,20.62
2017-03-28T07:29:48.919Z,20.73
2017-03-28T07:30:58.861Z,20.59
2017-03-28T07:32:09.102Z,20.62
2017-03-28T07:33:18.716Z,20.7
2017-03-28T07:34:28.648Z,20.57
2017-03-28T07:35:38.895Z,20.66
2017-03-28T07:36:48.822Z,20.62
2017-03-28T07:37:59.072Z,20.64
2017-03-28T07:39:09.004Z,20.61
2017-03-28T07:40:18.629Z,20.59
2017-03-28T07:41:28.865Z,20.59
2017-03-28T07:42:39.118Z,20.59
2017-03-28T07:43:48.111Z,20.69
2017-03-28T07:44:58.354Z,20.62
2017-03-28T07:46:07.971Z,20.59
2017-03-28T07:47:17.898Z,20.62
2017-03-28T07:48:28.140Z,20.66
2017-03-28T07:49:38.067Z,20.72
2017-03-28T07:50:47.995Z,20.69
2017-03-28T07:51:57.923Z,20.57
2017-03-28T07:53:08.196Z,20.59
2017-03-28T07:54:18.434Z,20.59
2017-03-28T07:55:28.681Z,20.57
2017-03-28T07:56:38.927Z,20.69
2017-03-28T07:57:48.856Z,20.67
2017-03-28T07:58:59.090Z,20.62
2017-03-28T08:00:09.336Z,20.74
2017-03-28T08:01:19.577Z,20.7
2017-03-28T08:02:29.194Z,20.73
2017-03-28T08:03:39.132Z,20.74
2017-03-28T08:04:49.366Z,20.76
2017-03-28T08:05:59.295Z,20.77
2017-03-28T08:07:09.220Z,20.74
2017-03-28T08:08:19.148Z,20.73
2017-03-28T08:09:29.385Z,20.8
2017-03-28T08:10:39.006Z,20.77
2017-03-28T08:11:48.939Z,20.77
2017-03-28T08:12:58.878Z,20.79
2017-03-28T08:14:09.125Z,20.76
2017-03-28T08:15:18.746Z,20.76
2017-03-28T08:16:28.364Z,20.67
2017-03-28T08:17:38.300Z,20.79
2017-03-28T08:18:48.248Z,20.79
2017-03-28T08:19:58.492Z,20.76
2017-03-28T08:21:08.110Z,20.87
2017-03-28T08:22:18.037Z,20.67
2017-03-28T08:23:28.272Z,20.77
2017-03-28T08:24:38.199Z,20.77
2017-03-28T08:25:48.441Z,20.8
2017-03-28T08:26:58.368Z,20.79
2017-03-28T08:28:08.605Z,20.82
2017-03-28T08:29:18.852Z,20.84
2017-03-28T08:30:28.812Z,20.76
2017-03-28T08:31:39.048Z,20.88
2017-03-28T08:32:49.300Z,20.7
2017-03-28T08:33:59.549Z,20.88
2017-03-28T08:35:09.790Z,20.82
2017-03-28T08:36:19.406Z,20.91
2017-03-28T08:37:29.336Z,20.73
2017-03-28T08:38:39.263Z,20.77
2017-03-28T08:39:49.505Z,20.79
2017-03-28T08:40:59.432Z,20.7
2017-03-28T08:42:09.383Z,20.88
2017-03-28T08:43:19.009Z,20.85
2017-03-28T08:44:28.943Z,20.73
2017-03-28T08:45:39.185Z,20.76
2017-03-28T08:46:49.112Z,20.85
2017-03-28T08:47:59.362Z,20.76
2017-03-28T08:49:09.304Z,20.66
2017-03-28T08:50:19.557Z,20.73
2017-03-28T08:51:29.809Z,20.74
2017-03-28T08:52:39.747Z,20.79
2017-03-28T08:53:49.991Z,20.77
2017-03-28T08:54:59.613Z,20.82
2017-03-28T08:56:09.542Z,20.73
2017-03-28T08:57:19.801Z,20.84
2017-03-28T08:58:30.042Z,20.82
2017-03-28T08:59:40.286Z,20.87
2017-03-28T09:00:50.223Z,20.76
2017-03-28T09:01:59.835Z,20.84
2017-03-28T09:03:09.764Z,20.7
2017-03-28T09:04:19.381Z,20.74
2017-03-28T09:05:29.314Z,20.82
2017-03-28T09:06:39.242Z,20.76
2017-03-28T09:07:49.493Z,20.73
2017-03-28T09:08:59.424Z,20.8
2017-03-28T09:10:09.041Z,20.88
2017-03-28T09:11:18.994Z,20.91
2017-03-28T09:12:29.242Z,20.76
2017-03-28T09:13:39.180Z,20.74
2017-03-28T09:14:49.120Z,20.84
2017-03-28T09:15:58.734Z,20.7
2017-03-28T09:17:08.663Z,20.67
2017-03-28T09:18:18.596Z,20.79
2017-03-28T09:19:28.850Z,20.8
2017-03-28T09:20:38.465Z,20.69
2017-03-28T09:21:48.391Z,20.76
2017-03-28T09:22:58.634Z,20.66
2017-03-28T09:24:08.258Z,20.72
2017-03-28T09:25:18.503Z,20.7
2017-03-28T09:26:28.121Z,20.82
2017-03-28T09:27:37.428Z,20.82
2017-03-28T09:28:47.363Z,20.8
2017-03-28T09:29:57.610Z,20.87
2017-03-28T09:31:07.865Z,20.88
2017-03-28T09:32:17.803Z,20.91
2017-03-28T09:33:28.041Z,20.72
2017-03-28T09:34:38.280Z,20.8
2017-03-28T09:35:48.532Z,20.85
2017-03-28T09:36:58.778Z,20.74
2017-03-28T09:38:09.024Z,20.82
2017-03-28T09:39:18.654Z,20.79
2017-03-28T09:40:28.907Z,20.66
2017-03-28T09:41:38.526Z,20.79
2017-03-28T09:42:48.766Z,20.69
2017-03-28T09:43:58.385Z,20.89
2017-03-28T09:45:08.000Z,20.69
2017-03-28T09:46:17.625Z,20.8
2017-03-28T09:47:27.563Z,20.69
2017-03-28T09:48:37.496Z,20.8
2017-03-28T09:49:47.115Z,20.8
2017-03-28T09:50:57.057Z,20.76
2017-03-28T09:52:07.314Z,20.82
2017-03-28T09:53:17.240Z,20.77
2017-03-28T09:54:27.178Z,20.76
2017-03-28T09:55:37.426Z,20.8
2017-03-28T09:56:47.668Z,20.76
2017-03-28T09:57:57.292Z,20.76
2017-03-28T09:59:07.533Z,20.8
2017-03-28T10:00:17.771Z,20.69
2017-03-28T10:01:28.017Z,20.79
2017-03-28T10:02:37.658Z,20.77
2017-03-28T10:03:47.906Z,20.77
2017-03-28T10:04:57.837Z,20.8
2017-03-28T10:06:07.772Z,20.82
2017-03-28T10:07:17.706Z,20.76
2017-03-28T10:08:27.636Z,20.79
2017-03-28T10:09:37.567Z,20.7
2017-03-28T10:10:47.505Z,20.77
2017-03-28T10:11:57.436Z,20.76
2017-03-28T10:13:07.359Z,20.77
2017-03-28T10:14:16.980Z,20.8
2017-03-28T10:15:26.280Z,20.8
2017-03-28T10:16:36.529Z,20.77
2017-03-28T10:17:46.777Z,20.77
2017-03-28T10:18:56.400Z,20.76
2017-03-28T10:20:06.643Z,20.77
2017-03-28T10:21:16.268Z,20.74
2017-03-28T10:22:26.247Z,20.77
2017-03-28T10:23:36.489Z,20.88
2017-03-28T10:24:46.416Z,20.76
2017-03-28T10:25:56.655Z,20.76
2017-03-28T10:27:06.595Z,20.82
2017-03-28T10:28:16.841Z,20.82
2017-03-28T10:29:26.471Z,20.77
2017-03-28T10:30:36.402Z,20.74
2017-03-28T10:31:46.331Z,20.73
2017-03-28T10:32:56.258Z,20.77
2017-03-28T10:34:06.513Z,20.77
2017-03-28T10:35:16.443Z,20.79
2017-03-28T10:36:26.683Z,20.72
2017-03-28T10:37:36.614Z,20.72
2017-03-28T10:38:46.855Z,20.77
2017-03-28T10:39:57.109Z,20.85
2017-03-28T10:41:07.061Z,20.77
2017-03-28T10:42:17.003Z,20.77
2017-03-28T10:43:26.934Z,20.76
2017-03-28T10:44:36.550Z,20.79
2017-03-28T10:45:46.793Z,20.8
2017-03-28T10:46:57.042Z,20.76
2017-03-28T10:48:06.681Z,20.76
2017-03-28T10:49:16.605Z,20.66
2017-03-28T10:50:26.536Z,20.79
2017-03-28T10:51:36.467Z,20.79
2017-03-28T10:52:46.713Z,20.8
2017-03-28T10:53:56.960Z,20.7
2017-03-28T10:55:07.208Z,20.76
2017-03-28T10:56:17.139Z,20.77
2017-03-28T10:57:27.064Z,20.76
2017-03-28T10:58:37.319Z,20.79
2017-03-28T10:59:47.256Z,20.77
2017-03-28T11:00:57.182Z,20.76
2017-03-28T11:02:07.426Z,20.77
2017-03-28T11:03:17.090Z,20.76
2017-03-28T11:04:27.029Z,20.79
2017-03-28T11:05:37.290Z,20.59
2017-03-28T11:06:47.216Z,20.76
2017-03-28T11:07:57.141Z,20.8
2017-03-28T11:09:07.395Z,20.8
2017-03-28T11:10:17.654Z,20.8
2017-03-28T11:11:27.901Z,20.67
2017-03-28T11:12:37.836Z,20.77
2017-03-28T11:13:47.784Z,20.74
2017-03-28T11:14:58.055Z,20.77
2017-03-28T11:16:07.979Z,20.76
2017-03-28T11:17:17.904Z,20.82
2017-03-28T11:18:27.832Z,20.64
2017-03-28T11:19:37.789Z,20.76
2017-03-28T11:20:47.721Z,20.8
2017-03-28T11:21:57.964Z,20.74
2017-03-28T11:23:08.217Z,20.76
2017-03-28T11:24:17.524Z,20.79
2017-03-28T11:25:27.147Z,20.77
2017-03-28T11:26:37.429Z,20.77
2017-03-28T11:27:47.669Z,20.76
2017-03-28T11:28:57.918Z,20.77
2017-03-28T11:30:07.851Z,20.79
2017-03-28T11:31:18.096Z,20.77
2017-03-28T11:32:28.023Z,20.74
2017-03-28T11:33:38.273Z,20.79
2017-03-28T11:34:48.203Z,20.77
2017-03-28T11:35:58.139Z,20.62
2017-03-28T11:37:08.379Z,20.79
2017-03-28T11:38:18.641Z,20.76
2017-03-28T11:39:28.587Z,20.82
2017-03-28T11:40:38.837Z,20.79
2017-03-28T11:41:48.483Z,20.77
2017-03-28T11:42:58.726Z,20.77
2017-03-28T11:44:08.667Z,20.8
2017-03-28T11:45:18.282Z,20.76
2017-03-28T11:46:28.208Z,20.82
2017-03-28T11:47:38.141Z,20.74
2017-03-28T11:48:48.390Z,20.8
2017-03-28T11:49:58.639Z,20.77
2017-03-28T11:51:08.249Z,20.77
2017-03-28T11:52:18.490Z,20.73
2017-03-28T11:53:28.451Z,20.77
2017-03-28T11:54:38.069Z,20.77
2017-03-28T11:55:48.317Z,20.82
2017-03-28T11:56:57.934Z,20.84
2017-03-28T11:58:08.182Z,20.77
2017-03-28T11:59:18.112Z,20.77
2017-03-28T12:00:28.357Z,20.77
2017-03-28T12:01:38.294Z,20.73
2017-03-28T12:02:48.566Z,20.77
2017-03-28T12:03:58.815Z,20.77
2017-03-28T12:05:09.061Z,20.76
2017-03-28T12:06:19.301Z,20.8
2017-03-28T12:07:29.539Z,20.82
2017-03-28T12:08:39.162Z,20.73
2017-03-28T12:09:49.090Z,20.77
2017-03-28T12:10:59.325Z,20.72
2017-03-28T12:12:08.938Z,20.76
2017-03-28T12:13:18.249Z,20.76
2017-03-28T12:14:28.505Z,20.73
2017-03-28T12:15:38.430Z,20.82
2017-03-28T12:16:48.369Z,20.77
2017-03-28T12:17:58.616Z,20.76
2017-03-28T12:19:08.857Z,20.77
2017-03-28T12:20:19.108Z,20.82
2017-03-28T12:21:29.381Z,20.76
2017-03-28T12:22:39.310Z,20.77
2017-03-28T12:23:48.924Z,20.69
2017-03-28T12:24:58.862Z,20.76
2017-03-28T12:26:09.100Z,20.74
2017-03-28T12:27:19.337Z,20.76
2017-03-28T12:28:29.586Z,20.61
2017-03-28T12:29:39.517Z,20.77
2017-03-28T12:30:49.442Z,20.73
2017-03-28T12:31:59.686Z,20.76
2017-03-28T12:33:09.616Z,20.72
2017-03-28T12:34:19.863Z,20.73
2017-03-28T12:35:29.473Z,20.72
2017-03-28T12:36:39.405Z,20.8
2017-03-28T12:37:49.337Z,20.72
2017-03-28T12:38:59.261Z,20.67
2017-03-28T12:40:08.874Z,20.73
2017-03-28T12:41:18.526Z,20.73
2017-03-28T12:42:28.490Z,20.84
2017-03-28T12:43:38.731Z,20.67
2017-03-28T12:44:49.028Z,20.79
2017-03-28T12:45:59.273Z,20.76
2017-03-28T12:47:09.546Z,20.82
2017-03-28T12:48:19.475Z,20.73
2017-03-28T12:49:29.093Z,20.76
2017-03-28T12:50:38.713Z,20.77
2017-03-28T12:51:48.982Z,20.77
2017-03-28T12:52:58.920Z,20.8
2017-03-28T12:54:08.847Z,20.82
2017-03-28T12:55:18.778Z,20.79
2017-03-28T12:56:29.026Z,20.77
2017-03-28T12:57:38.953Z,20.79
2017-03-28T12:58:49.206Z,20.77
2017-03-28T12:59:59.438Z,20.7
2017-03-28T13:01:09.369Z,20.82
2017-03-28T13:02:19.619Z,20.76
2017-03-28T13:03:29.542Z,20.7
2017-03-28T13:04:39.475Z,20.77
2017-03-28T13:05:49.405Z,20.79
2017-03-28T13:06:59.335Z,20.69
2017-03-28T13:08:09.581Z,20.82
2017-03-28T13:09:19.196Z,20.87
2017-03-28T13:10:29.128Z,20.76
2017-03-28T13:11:39.054Z,20.72
2017-03-28T13:12:48.365Z,20.82
2017-03-28T13:13:58.302Z,20.77
2017-03-28T13:15:07.612Z,20.77
2017-03-28T13:16:17.852Z,20.8
2017-03-28T13:17:28.103Z,20.7
2017-03-28T13:18:37.730Z,20.82
2017-03-28T13:19:47.970Z,20.76
2017-03-28T13:20:58.222Z,20.69
2017-03-28T13:22:08.160Z,20.64
2017-03-28T13:23:19.018Z,20.79
2017-03-28T13:24:28.951Z,20.88
2017-03-28T13:25:39.213Z,20.82
2017-03-28T13:26:49.141Z,20.74
2017-03-28T13:27:59.074Z,20.73
2017-03-28T13:29:09.314Z,20.77
2017-03-28T13:30:18.928Z,20.8
2017-03-28T13:31:28.867Z,20.77
2017-03-28T13:32:39.120Z,20.82
2017-03-28T13:33:49.590Z,20.79
2017-03-28T13:34:59.830Z,20.77
2017-03-28T13:36:09.480Z,20.67
2017-03-28T13:37:19.407Z,20.76
2017-03-28T13:38:29.329Z,20.76
2017-03-28T13:39:39.265Z,20.76
2017-03-28T13:40:49.514Z,20.77
2017-03-28T13:41:59.128Z,20.77
2017-03-28T13:43:09.367Z,20.7
2017-03-28T13:44:18.985Z,20.8
2017-03-28T13:45:29.228Z,20.74
2017-03-28T13:46:39.168Z,20.72
2017-03-28T13:47:49.094Z,20.74
2017-03-28T13:48:59.020Z,20.8
2017-03-28T13:50:09.262Z,20.84
2017-03-28T13:51:19.196Z,20.76
2017-03-28T13:52:29.435Z,20.76
2017-03-28T13:53:39.675Z,20.76
2017-03-28T13:54:49.603Z,20.76
2017-03-28T13:55:59.847Z,20.67
2017-03-28T13:57:10.089Z,20.76
2017-03-28T13:58:20.327Z,20.84
2017-03-28T13:59:29.937Z,20.67
2017-03-28T14:00:39.863Z,20.72
2017-03-28T14:01:49.479Z,20.76
2017-03-28T14:02:59.089Z,20.79
2017-03-28T14:04:09.018Z,20.74
2017-03-28T14:05:19.261Z,20.77
2017-03-28T14:06:29.187Z,20.76
2017-03-28T14:07:38.815Z,20.77
2017-03-28T14:08:49.062Z,20.74
2017-03-28T14:09:59.297Z,20.76
2017-03-28T14:11:09.546Z,20.79
2017-03-28T14:12:19.790Z,20.79
2017-03-28T14:13:30.034Z,20.76
2017-03-28T14:14:39.953Z,20.76
2017-03-28T14:15:49.884Z,20.76
2017-03-28T14:17:00.142Z,20.76
2017-03-28T14:18:10.073Z,20.7
2017-03-28T14:19:20.308Z,20.8
2017-03-28T14:20:30.547Z,20.76
2017-03-28T14:21:40.168Z,20.79
2017-03-28T14:22:50.094Z,20.79
2017-03-28T14:24:00.022Z,20.82
2017-03-28T14:25:09.955Z,20.76
2017-03-28T14:26:19.273Z,20.77
2017-03-28T14:27:29.519Z,20.85
2017-03-28T14:28:39.447Z,20.74
2017-03-28T14:29:49.691Z,20.8
2017-03-28T14:30:59.936Z,20.8
2017-03-28T14:32:09.861Z,20.77
2017-03-28T14:33:20.108Z,20.88
2017-03-28T14:34:30.033Z,20.77
2017-03-28T14:35:39.962Z,20.77
2017-03-28T14:36:50.213Z,20.79
2017-03-28T14:38:00.459Z,20.82
2017-03-28T14:39:10.700Z,20.8
2017-03-28T14:40:20.624Z,20.8
2017-03-28T14:41:30.549Z,20.72
2017-03-28T14:42:40.164Z,20.77
2017-03-28T14:43:50.410Z,20.84
2017-03-28T14:45:00.351Z,20.82
2017-03-28T14:46:10.593Z,20.74
2017-03-28T14:47:20.527Z,20.82
2017-03-28T14:48:30.771Z,20.74
2017-03-28T14:49:41.010Z,20.82
2017-03-28T14:50:51.260Z,20.76
2017-03-28T14:52:01.187Z,20.73
2017-03-28T14:53:11.425Z,20.87
2017-03-28T14:54:21.665Z,20.74
2017-03-28T14:55:31.597Z,20.74
2017-03-28T14:56:41.850Z,20.8
2017-03-28T14:57:51.780Z,20.8
2017-03-28T14:59:01.080Z,20.84
2017-03-28T15:00:11.000Z,20.87
2017-03-28T15:01:21.267Z,20.72
2017-03-28T15:02:31.201Z,20.77
2017-03-28T15:03:41.125Z,20.87